createdAt,value
2022-10-25T00:01:39.000Z,6.50
2022-10-25T00:21:40.000Z,6.70
2022-10-25T00:31:40.000Z,7.60
2022-10-25T00:41:40.000Z,7.00
2022-10-25T00:51:41.000Z,7.90
2022-10-25T01:01:41.000Z,5.90
2022-10-25T01:11:41.000Z,6.70
2022-10-25T01:21:42.000Z,5.60
2022-10-25T01:31:42.000Z,5.40
2022-10-25T01:51:43.000Z,5.40
2022-10-25T02:01:43.000Z,5.60
2022-10-25T02:11:44.000Z,6.00
2022-10-25T02:21:44.000Z,6.60
2022-10-25T02:31:44.000Z,5.60
2022-10-25T02:41:45.000Z,6.00
2022-10-25T02:51:45.000Z,5.90
2022-10-25T03:01:46.000Z,7.90
2022-10-25T03:21:47.000Z,7.90
2022-10-25T03:31:47.000Z,9.70
2022-10-25T03:41:48.000Z,8.90
2022-10-25T03:51:48.000Z,9.50
2022-10-25T04:01:49.000Z,9.50
2022-10-25T04:11:49.000Z,9.90
2022-10-25T04:21:50.000Z,10.10
2022-10-25T04:31:50.000Z,9.80
2022-10-25T04:51:51.000Z,9.50
2022-10-25T05:01:52.000Z,10.10
2022-10-25T05:11:52.000Z,9.30
2022-10-25T05:21:53.000Z,7.10
2022-10-25T05:31:53.000Z,8.40
2022-10-25T05:41:54.000Z,8.70
2022-10-25T05:51:54.000Z,7.00
2022-10-25T06:01:55.000Z,7.30
2022-10-25T06:21:55.000Z,6.80
2022-10-25T06:31:56.000Z,6.40
2022-10-25T06:41:56.000Z,6.60
2022-10-25T06:51:57.000Z,5.20
2022-10-25T07:01:57.000Z,4.70
2022-10-25T07:01:57.000Z,4.70
2022-10-25T07:11:57.000Z,4.50
2022-10-25T07:21:58.000Z,4.40
2022-10-25T07:31:58.000Z,4.30
2022-10-25T07:51:58.000Z,4.00
2022-10-25T08:01:59.000Z,3.30
2022-10-25T08:11:59.000Z,4.40
2022-10-25T08:21:59.000Z,3.70
2022-10-25T09:29:19.000Z,4.20
2022-10-25T09:29:19.000Z,3.70
2022-10-25T09:39:19.000Z,3.90
2022-10-25T09:49:19.000Z,3.10
2022-10-25T09:59:19.000Z,3.50
2022-10-25T10:09:19.000Z,4.00
2022-10-25T10:19:19.000Z,3.60
2022-10-25T14:41:10.000Z,3.30
2022-10-25T14:41:10.000Z,3.30
2022-10-25T14:51:10.000Z,3.60
2022-10-25T15:01:10.000Z,3.20
2022-10-25T15:31:44.000Z,4.00
2022-10-25T15:31:44.000Z,3.60
2022-10-25T15:57:01.000Z,3.60
2022-10-25T15:57:01.000Z,3.50
2022-10-25T16:07:01.000Z,4.40
2022-10-25T16:17:01.000Z,4.50
2022-10-25T16:27:01.000Z,3.90
2022-10-25T16:37:01.000Z,4.20
2022-10-25T16:47:01.000Z,4.70
2022-10-25T16:57:01.000Z,4.70
2022-10-25T17:07:01.000Z,5.30
2022-10-25T17:27:01.000Z,4.90
2022-10-25T17:37:01.000Z,7.90
2022-10-25T17:47:02.000Z,11.00
2022-10-25T17:57:02.000Z,17.00
2022-10-25T18:07:02.000Z,13.60
2022-10-25T18:17:02.000Z,20.00
2022-10-25T18:27:02.000Z,8.40
2022-10-25T18:37:03.000Z,9.30
2022-10-25T19:12:21.000Z,12.60
2022-10-25T19:12:21.000Z,11.00
2022-10-25T19:42:39.000Z,10.30
2022-10-25T19:42:39.000Z,12.20
2022-10-25T19:52:39.000Z,10.00
2022-10-25T20:02:40.000Z,10.10
2022-10-25T20:12:40.000Z,11.20
2022-10-25T20:22:40.000Z,14.20
2022-10-25T20:32:41.000Z,14.80
2022-10-25T20:42:41.000Z,13.50
2022-10-25T20:42:41.000Z,13.50
2022-10-25T20:52:41.000Z,12.20
2022-10-25T21:12:42.000Z,14.80
2022-10-25T21:22:43.000Z,10.50
2022-10-25T21:32:43.000Z,13.70
2022-10-25T21:42:44.000Z,13.80
2022-10-25T21:52:44.000Z,13.70
2022-10-25T22:02:53.000Z,14.50
2022-10-25T22:12:45.000Z,15.60
2022-10-25T22:22:46.000Z,14.40
2022-10-25T22:42:47.000Z,14.00
2022-10-25T22:52:47.000Z,19.50
2022-10-25T23:02:48.000Z,20.30
2022-10-25T23:12:48.000Z,19.70
2022-10-25T23:22:49.000Z,19.50
2022-10-25T23:32:49.000Z,20.00
2022-10-25T23:42:50.000Z,18.00
2022-10-25T23:52:50.000Z,17.40
